sensor_id;sensor_type;location;lat;lon;timestamp;P1;durP1;ratioP1;P2;durP2;ratioP2
13590;SDS011;6866;50.778;7.206;2023-06-24T00:00:03;9.02;;;6.97;;
13590;SDS011;6866;50.778;7.206;2023-06-24T00:02:33;13.23;;;7.13;;
13590;SDS011;6866;50.778;7.206;2023-06-24T00:05:01;10.57;;;6.57;;
13590;SDS011;6866;50.778;7.206;2023-06-24T00:07:28;12.65;;;6.55;;
13590;SDS011;6866;50.778;7.206;2023-06-24T00:09:54;10.55;;;6.78;;
13590;SDS011;6866;50.778;7.206;2023-06-24T00:12:20;10.75;;;6.75;;
13590;SDS011;6866;50.778;7.206;2023-06-24T00:14:49;12.65;;;6.22;;
13590;SDS011;6866;50.778;7.206;2023-06-24T00:17:15;8.93;;;6.60;;
13590;SDS011;6866;50.778;7.206;2023-06-24T00:19:41;10.80;;;7.33;;
13590;SDS011;6866;50.778;7.206;2023-06-24T00:22:09;7.93;;;6.32;;
13590;SDS011;6866;50.778;7.206;2023-06-24T00:24:34;10.88;;;6.43;;
13590;SDS011;6866;50.778;7.206;2023-06-24T00:27:00;10.15;;;6.60;;
13590;SDS011;6866;50.778;7.206;2023-06-24T00:29:25;10.02;;;6.60;;
13590;SDS011;6866;50.778;7.206;2023-06-24T00:31:51;12.20;;;6.70;;
13590;SDS011;6866;50.778;7.206;2023-06-24T00:34:16;10.73;;;6.65;;
13590;SDS011;6866;50.778;7.206;2023-06-24T00:36:44;11.13;;;6.70;;
13590;SDS011;6866;50.778;7.206;2023-06-24T00:39:11;11.00;;;6.75;;
13590;SDS011;6866;50.778;7.206;2023-06-24T00:41:37;11.52;;;7.30;;
13590;SDS011;6866;50.778;7.206;2023-06-24T00:44:03;11.82;;;7.45;;
13590;SDS011;6866;50.778;7.206;2023-06-24T00:46:29;8.98;;;6.93;;
13590;SDS011;6866;50.778;7.206;2023-06-24T00:48:58;11.27;;;7.55;;
13590;SDS011;6866;50.778;7.206;2023-06-24T00:51:24;10.90;;;6.75;;
13590;SDS011;6866;50.778;7.206;2023-06-24T00:53:51;10.48;;;6.88;;
13590;SDS011;6866;50.778;7.206;2023-06-24T00:56:19;11.32;;;8.23;;
13590;SDS011;6866;50.778;7.206;2023-06-24T00:58:47;10.07;;;7.50;;
13590;SDS011;6866;50.778;7.206;2023-06-24T01:03:49;11.13;;;7.70;;
13590;SDS011;6866;50.778;7.206;2023-06-24T01:06:15;11.75;;;7.70;;
13590;SDS011;6866;50.778;7.206;2023-06-24T01:08:42;12.43;;;7.60;;
13590;SDS011;6866;50.778;7.206;2023-06-24T01:11:07;11.57;;;7.00;;
13590;SDS011;6866;50.778;7.206;2023-06-24T01:13:33;16.42;;;7.22;;
13590;SDS011;6866;50.778;7.206;2023-06-24T01:16:00;11.48;;;6.90;;
13590;SDS011;6866;50.778;7.206;2023-06-24T01:18:36;11.95;;;7.10;;
13590;SDS011;6866;50.778;7.206;2023-06-24T01:32:19;10.20;;;7.60;;
13590;SDS011;6866;50.778;7.206;2023-06-24T01:35:02;13.65;;;7.82;;
13590;SDS011;6866;50.778;7.206;2023-06-24T01:37:37;11.07;;;8.02;;
13590;SDS011;6866;50.778;7.206;2023-06-24T01:42:38;10.73;;;7.47;;
13590;SDS011;6866;50.778;7.206;2023-06-24T01:45:06;13.63;;;7.57;;
13590;SDS011;6866;50.778;7.206;2023-06-24T01:47:34;14.88;;;7.97;;
13590;SDS011;6866;50.778;7.206;2023-06-24T01:50:01;9.27;;;7.15;;
13590;SDS011;6866;50.778;7.206;2023-06-24T01:52:29;11.32;;;7.30;;
13590;SDS011;6866;50.778;7.206;2023-06-24T01:54:55;15.68;;;8.00;;
13590;SDS011;6866;50.778;7.206;2023-06-24T01:57:23;10.68;;;6.78;;
13590;SDS011;6866;50.778;7.206;2023-06-24T01:59:52;12.63;;;7.00;;
13590;SDS011;6866;50.778;7.206;2023-06-24T02:02:20;11.63;;;7.32;;
13590;SDS011;6866;50.778;7.206;2023-06-24T02:04:47;13.32;;;7.80;;
13590;SDS011;6866;50.778;7.206;2023-06-24T02:07:15;11.00;;;7.60;;
13590;SDS011;6866;50.778;7.206;2023-06-24T02:09:42;9.60;;;7.65;;
13590;SDS011;6866;50.778;7.206;2023-06-24T02:12:10;11.85;;;7.93;;
13590;SDS011;6866;50.778;7.206;2023-06-24T02:14:37;10.95;;;7.57;;
13590;SDS011;6866;50.778;7.206;2023-06-24T02:17:05;11.43;;;7.88;;
13590;SDS011;6866;50.778;7.206;2023-06-24T02:19:32;14.90;;;7.75;;
13590;SDS011;6866;50.778;7.206;2023-06-24T02:21:59;10.27;;;7.55;;
13590;SDS011;6866;50.778;7.206;2023-06-24T02:24:26;15.32;;;8.05;;
13590;SDS011;6866;50.778;7.206;2023-06-24T02:26:53;11.98;;;7.60;;
13590;SDS011;6866;50.778;7.206;2023-06-24T02:29:21;12.38;;;7.50;;
13590;SDS011;6866;50.778;7.206;2023-06-24T02:31:47;13.35;;;7.85;;
13590;SDS011;6866;50.778;7.206;2023-06-24T02:34:13;12.57;;;8.30;;
13590;SDS011;6866;50.778;7.206;2023-06-24T02:36:40;11.57;;;8.00;;
13590;SDS011;6866;50.778;7.206;2023-06-24T02:39:06;14.30;;;7.90;;
13590;SDS011;6866;50.778;7.206;2023-06-24T02:41:31;13.55;;;8.30;;
13590;SDS011;6866;50.778;7.206;2023-06-24T02:43:57;11.35;;;7.85;;
13590;SDS011;6866;50.778;7.206;2023-06-24T02:46:23;12.18;;;7.68;;
13590;SDS011;6866;50.778;7.206;2023-06-24T02:48:50;16.00;;;8.57;;
13590;SDS011;6866;50.778;7.206;2023-06-24T02:51:17;17.85;;;8.50;;
13590;SDS011;6866;50.778;7.206;2023-06-24T02:53:43;14.40;;;8.32;;
13590;SDS011;6866;50.778;7.206;2023-06-24T02:56:11;13.25;;;7.90;;
13590;SDS011;6866;50.778;7.206;2023-06-24T02:58:37;11.68;;;7.70;;
13590;SDS011;6866;50.778;7.206;2023-06-24T03:01:05;13.70;;;8.43;;
13590;SDS011;6866;50.778;7.206;2023-06-24T03:03:33;14.05;;;8.07;;
13590;SDS011;6866;50.778;7.206;2023-06-24T03:06:00;12.77;;;7.10;;
13590;SDS011;6866;50.778;7.206;2023-06-24T03:08:27;13.38;;;8.07;;
13590;SDS011;6866;50.778;7.206;2023-06-24T03:10:54;16.67;;;8.52;;
13590;SDS011;6866;50.778;7.206;2023-06-24T03:13:20;13.38;;;7.70;;
13590;SDS011;6866;50.778;7.206;2023-06-24T03:15:45;11.60;;;8.00;;
13590;SDS011;6866;50.778;7.206;2023-06-24T03:18:11;10.75;;;7.50;;
13590;SDS011;6866;50.778;7.206;2023-06-24T03:20:36;12.55;;;7.57;;
13590;SDS011;6866;50.778;7.206;2023-06-24T03:23:04;12.02;;;7.90;;
13590;SDS011;6866;50.778;7.206;2023-06-24T03:25:33;12.82;;;8.65;;
13590;SDS011;6866;50.778;7.206;2023-06-24T03:28:00;12.63;;;8.30;;
13590;SDS011;6866;50.778;7.206;2023-06-24T03:30:26;13.95;;;8.30;;
13590;SDS011;6866;50.778;7.206;2023-06-24T03:32:52;11.10;;;8.18;;
13590;SDS011;6866;50.778;7.206;2023-06-24T03:35:18;15.77;;;8.45;;
13590;SDS011;6866;50.778;7.206;2023-06-24T03:37:43;14.85;;;8.13;;
13590;SDS011;6866;50.778;7.206;2023-06-24T03:40:09;14.50;;;8.27;;
13590;SDS011;6866;50.778;7.206;2023-06-24T03:42:35;13.77;;;8.27;;
13590;SDS011;6866;50.778;7.206;2023-06-24T03:45:01;11.98;;;8.07;;
13590;SDS011;6866;50.778;7.206;2023-06-24T03:47:28;16.20;;;7.95;;
13590;SDS011;6866;50.778;7.206;2023-06-24T03:49:54;19.80;;;8.90;;
13590;SDS011;6866;50.778;7.206;2023-06-24T03:52:19;17.88;;;8.23;;
13590;SDS011;6866;50.778;7.206;2023-06-24T03:54:45;15.70;;;8.18;;
13590;SDS011;6866;50.778;7.206;2023-06-24T03:57:11;13.88;;;8.43;;
13590;SDS011;6866;50.778;7.206;2023-06-24T03:59:37;15.18;;;8.20;;
13590;SDS011;6866;50.778;7.206;2023-06-24T04:02:03;12.43;;;7.93;;
13590;SDS011;6866;50.778;7.206;2023-06-24T04:04:33;13.27;;;8.52;;
13590;SDS011;6866;50.778;7.206;2023-06-24T04:06:59;11.68;;;7.97;;
13590;SDS011;6866;50.778;7.206;2023-06-24T04:09:24;13.90;;;8.55;;
13590;SDS011;6866;50.778;7.206;2023-06-24T04:11:50;13.82;;;8.23;;
13590;SDS011;6866;50.778;7.206;2023-06-24T04:14:15;16.92;;;8.50;;
13590;SDS011;6866;50.778;7.206;2023-06-24T04:16:41;15.65;;;8.15;;
13590;SDS011;6866;50.778;7.206;2023-06-24T04:19:07;16.60;;;8.43;;
13590;SDS011;6866;50.778;7.206;2023-06-24T04:21:32;13.18;;;7.72;;
13590;SDS011;6866;50.778;7.206;2023-06-24T04:23:58;15.52;;;8.77;;
13590;SDS011;6866;50.778;7.206;2023-06-24T04:26:23;10.38;;;8.00;;
13590;SDS011;6866;50.778;7.206;2023-06-24T04:28:49;13.48;;;8.02;;
13590;SDS011;6866;50.778;7.206;2023-06-24T04:31:14;14.30;;;8.73;;
13590;SDS011;6866;50.778;7.206;2023-06-24T04:33:40;12.07;;;8.35;;
13590;SDS011;6866;50.778;7.206;2023-06-24T04:36:06;16.48;;;8.70;;
13590;SDS011;6866;50.778;7.206;2023-06-24T04:38:31;11.60;;;8.48;;
13590;SDS011;6866;50.778;7.206;2023-06-24T04:40:57;13.85;;;8.38;;
13590;SDS011;6866;50.778;7.206;2023-06-24T04:43:24;12.98;;;7.63;;
13590;SDS011;6866;50.778;7.206;2023-06-24T04:45:50;12.13;;;7.57;;
13590;SDS011;6866;50.778;7.206;2023-06-24T04:48:16;10.95;;;8.20;;
13590;SDS011;6866;50.778;7.206;2023-06-24T04:50:41;10.50;;;7.18;;
13590;SDS011;6866;50.778;7.206;2023-06-24T04:53:07;11.60;;;7.57;;
13590;SDS011;6866;50.778;7.206;2023-06-24T04:55:32;13.50;;;7.90;;
13590;SDS011;6866;50.778;7.206;2023-06-24T04:57:58;12.35;;;7.60;;
13590;SDS011;6866;50.778;7.206;2023-06-24T05:00:23;14.10;;;8.02;;
13590;SDS011;6866;50.778;7.206;2023-06-24T05:02:49;13.35;;;8.02;;
13590;SDS011;6866;50.778;7.206;2023-06-24T05:05:15;15.50;;;7.88;;
13590;SDS011;6866;50.778;7.206;2023-06-24T05:07:41;10.05;;;7.50;;
13590;SDS011;6866;50.778;7.206;2023-06-24T05:10:06;15.43;;;7.65;;
13590;SDS011;6866;50.778;7.206;2023-06-24T05:12:32;11.23;;;7.63;;
13590;SDS011;6866;50.778;7.206;2023-06-24T05:14:57;13.00;;;7.38;;
13590;SDS011;6866;50.778;7.206;2023-06-24T05:17:23;17.25;;;7.88;;
13590;SDS011;6866;50.778;7.206;2023-06-24T05:19:49;16.33;;;7.80;;
13590;SDS011;6866;50.778;7.206;2023-06-24T05:22:14;14.20;;;7.30;;
13590;SDS011;6866;50.778;7.206;2023-06-24T05:24:40;12.00;;;7.35;;
13590;SDS011;6866;50.778;7.206;2023-06-24T05:27:06;8.70;;;7.05;;
13590;SDS011;6866;50.778;7.206;2023-06-24T05:29:32;11.88;;;6.57;;
13590;SDS011;6866;50.778;7.206;2023-06-24T05:31:58;11.68;;;6.82;;
13590;SDS011;6866;50.778;7.206;2023-06-24T05:34:24;13.60;;;6.78;;
13590;SDS011;6866;50.778;7.206;2023-06-24T05:36:50;9.25;;;6.68;;
13590;SDS011;6866;50.778;7.206;2023-06-24T05:39:16;9.77;;;6.30;;
13590;SDS011;6866;50.778;7.206;2023-06-24T05:41:42;8.43;;;6.32;;
13590;SDS011;6866;50.778;7.206;2023-06-24T05:44:08;11.85;;;7.25;;
13590;SDS011;6866;50.778;7.206;2023-06-24T05:46:35;9.30;;;6.20;;
13590;SDS011;6866;50.778;7.206;2023-06-24T05:49:01;10.38;;;6.95;;
13590;SDS011;6866;50.778;7.206;2023-06-24T05:51:27;9.95;;;6.30;;
13590;SDS011;6866;50.778;7.206;2023-06-24T05:53:52;7.15;;;5.75;;
13590;SDS011;6866;50.778;7.206;2023-06-24T05:56:19;8.32;;;6.30;;
13590;SDS011;6866;50.778;7.206;2023-06-24T05:58:45;9.95;;;6.20;;
13590;SDS011;6866;50.778;7.206;2023-06-24T06:01:11;12.52;;;6.28;;
13590;SDS011;6866;50.778;7.206;2023-06-24T06:03:36;12.18;;;5.90;;
13590;SDS011;6866;50.778;7.206;2023-06-24T06:06:02;8.75;;;5.90;;
13590;SDS011;6866;50.778;7.206;2023-06-24T06:13:19;11.95;;;6.65;;
13590;SDS011;6866;50.778;7.206;2023-06-24T06:15:44;10.38;;;6.10;;
13590;SDS011;6866;50.778;7.206;2023-06-24T06:25:26;8.52;;;5.55;;
13590;SDS011;6866;50.778;7.206;2023-06-24T06:27:51;10.67;;;6.07;;
13590;SDS011;6866;50.778;7.206;2023-06-24T06:30:17;9.67;;;5.70;;
13590;SDS011;6866;50.778;7.206;2023-06-24T06:32:43;9.47;;;6.13;;
13590;SDS011;6866;50.778;7.206;2023-06-24T06:35:08;7.33;;;5.27;;
13590;SDS011;6866;50.778;7.206;2023-06-24T06:37:34;7.22;;;5.13;;
13590;SDS011;6866;50.778;7.206;2023-06-24T06:39:59;8.30;;;5.20;;
13590;SDS011;6866;50.778;7.206;2023-06-24T06:42:25;11.00;;;5.63;;
13590;SDS011;6866;50.778;7.206;2023-06-24T06:44:51;10.03;;;5.70;;
13590;SDS011;6866;50.778;7.206;2023-06-24T06:47:16;8.97;;;5.20;;
13590;SDS011;6866;50.778;7.206;2023-06-24T06:49:42;8.60;;;5.80;;
13590;SDS011;6866;50.778;7.206;2023-06-24T06:52:08;9.90;;;5.30;;
13590;SDS011;6866;50.778;7.206;2023-06-24T06:54:33;7.20;;;5.17;;
13590;SDS011;6866;50.778;7.206;2023-06-24T09:15:30;10.25;;;7.07;;
13590;SDS011;6866;50.778;7.206;2023-06-24T09:18:00;12.40;;;8.33;;
13590;SDS011;6866;50.778;7.206;2023-06-24T09:20:29;10.50;;;7.50;;
13590;SDS011;6866;50.778;7.206;2023-06-24T09:22:59;9.25;;;6.80;;
13590;SDS011;6866;50.778;7.206;2023-06-24T09:25:26;9.63;;;6.20;;
13590;SDS011;6866;50.778;7.206;2023-06-24T09:27:52;9.87;;;5.90;;
13590;SDS011;6866;50.778;7.206;2023-06-24T09:30:21;7.05;;;5.38;;
13590;SDS011;6866;50.778;7.206;2023-06-24T09:32:48;8.73;;;5.55;;
13590;SDS011;6866;50.778;7.206;2023-06-24T09:35:16;8.50;;;6.18;;
13590;SDS011;6866;50.778;7.206;2023-06-24T09:37:48;9.70;;;6.45;;
13590;SDS011;6866;50.778;7.206;2023-06-24T09:40:18;8.23;;;5.18;;
13590;SDS011;6866;50.778;7.206;2023-06-24T09:42:53;9.15;;;6.22;;
13590;SDS011;6866;50.778;7.206;2023-06-24T09:45:21;7.45;;;5.35;;
13590;SDS011;6866;50.778;7.206;2023-06-24T09:47:48;8.85;;;5.38;;
13590;SDS011;6866;50.778;7.206;2023-06-24T09:50:14;8.57;;;6.33;;
13590;SDS011;6866;50.778;7.206;2023-06-24T09:52:39;8.33;;;5.37;;
13590;SDS011;6866;50.778;7.206;2023-06-24T09:55:06;8.67;;;5.40;;
13590;SDS011;6866;50.778;7.206;2023-06-24T09:57:34;8.60;;;5.07;;
13590;SDS011;6866;50.778;7.206;2023-06-24T10:00:01;7.47;;;5.00;;
13590;SDS011;6866;50.778;7.206;2023-06-24T10:02:28;8.63;;;5.75;;
13590;SDS011;6866;50.778;7.206;2023-06-24T10:04:55;9.70;;;5.60;;
13590;SDS011;6866;50.778;7.206;2023-06-24T10:07:21;8.17;;;4.87;;
13590;SDS011;6866;50.778;7.206;2023-06-24T10:09:47;8.18;;;4.85;;
13590;SDS011;6866;50.778;7.206;2023-06-24T10:12:13;7.82;;;4.90;;
13590;SDS011;6866;50.778;7.206;2023-06-24T10:14:39;7.68;;;4.80;;
13590;SDS011;6866;50.778;7.206;2023-06-24T10:17:05;7.38;;;4.80;;
13590;SDS011;6866;50.778;7.206;2023-06-24T10:19:31;9.63;;;4.90;;
13590;SDS011;6866;50.778;7.206;2023-06-24T10:22:10;8.00;;;4.70;;
13590;SDS011;6866;50.778;7.206;2023-06-24T10:24:36;8.30;;;4.63;;
13590;SDS011;6866;50.778;7.206;2023-06-24T10:27:13;8.25;;;5.05;;
13590;SDS011;6866;50.778;7.206;2023-06-24T10:29:44;8.55;;;4.60;;
13590;SDS011;6866;50.778;7.206;2023-06-24T10:32:11;6.78;;;5.05;;
13590;SDS011;6866;50.778;7.206;2023-06-24T10:37:03;7.30;;;5.07;;
13590;SDS011;6866;50.778;7.206;2023-06-24T10:39:36;8.10;;;5.38;;
13590;SDS011;6866;50.778;7.206;2023-06-24T10:44:48;7.13;;;4.70;;
13590;SDS011;6866;50.778;7.206;2023-06-24T10:47:15;7.22;;;5.28;;
13590;SDS011;6866;50.778;7.206;2023-06-24T10:49:41;8.85;;;5.30;;
13590;SDS011;6866;50.778;7.206;2023-06-24T10:52:07;7.30;;;4.77;;
13590;SDS011;6866;50.778;7.206;2023-06-24T10:54:37;8.10;;;5.22;;
13590;SDS011;6866;50.778;7.206;2023-06-24T10:57:11;10.32;;;4.95;;
13590;SDS011;6866;50.778;7.206;2023-06-24T10:59:41;7.87;;;4.50;;
13590;SDS011;6866;50.778;7.206;2023-06-24T11:02:07;9.32;;;5.30;;
13590;SDS011;6866;50.778;7.206;2023-06-24T11:04:41;8.40;;;4.78;;
13590;SDS011;6866;50.778;7.206;2023-06-24T11:07:07;9.20;;;5.30;;
13590;SDS011;6866;50.778;7.206;2023-06-24T11:09:33;8.93;;;4.32;;
13590;SDS011;6866;50.778;7.206;2023-06-24T11:11:58;7.55;;;4.70;;
13590;SDS011;6866;50.778;7.206;2023-06-24T11:19:18;11.27;;;4.65;;
13590;SDS011;6866;50.778;7.206;2023-06-24T11:21:43;8.77;;;5.03;;
13590;SDS011;6866;50.778;7.206;2023-06-24T11:29:06;9.52;;;4.75;;
13590;SDS011;6866;50.778;7.206;2023-06-24T11:31:37;10.10;;;4.88;;
13590;SDS011;6866;50.778;7.206;2023-06-24T11:34:03;6.63;;;4.70;;
13590;SDS011;6866;50.778;7.206;2023-06-24T11:36:29;6.75;;;4.53;;
13590;SDS011;6866;50.778;7.206;2023-06-24T11:38:55;7.53;;;4.10;;
13590;SDS011;6866;50.778;7.206;2023-06-24T11:41:20;10.68;;;4.60;;
13590;SDS011;6866;50.778;7.206;2023-06-24T11:43:47;10.13;;;4.63;;
13590;SDS011;6866;50.778;7.206;2023-06-24T11:46:25;9.65;;;5.13;;
13590;SDS011;6866;50.778;7.206;2023-06-24T11:48:52;6.32;;;4.57;;
13590;SDS011;6866;50.778;7.206;2023-06-24T11:51:44;8.80;;;4.32;;
13590;SDS011;6866;50.778;7.206;2023-06-24T11:54:15;9.13;;;4.30;;
13590;SDS011;6866;50.778;7.206;2023-06-24T11:56:49;7.47;;;4.63;;
13590;SDS011;6866;50.778;7.206;2023-06-24T11:59:20;8.48;;;4.80;;
13590;SDS011;6866;50.778;7.206;2023-06-24T12:04:29;7.40;;;4.72;;
13590;SDS011;6866;50.778;7.206;2023-06-24T12:06:55;8.15;;;4.13;;
13590;SDS011;6866;50.778;7.206;2023-06-24T12:09:21;6.63;;;4.45;;
13590;SDS011;6866;50.778;7.206;2023-06-24T12:11:47;7.07;;;4.40;;
13590;SDS011;6866;50.778;7.206;2023-06-24T12:14:12;7.50;;;4.30;;
13590;SDS011;6866;50.778;7.206;2023-06-24T12:16:38;7.60;;;4.38;;
13590;SDS011;6866;50.778;7.206;2023-06-24T12:19:05;7.63;;;4.57;;
13590;SDS011;6866;50.778;7.206;2023-06-24T12:21:31;6.70;;;4.40;;
13590;SDS011;6866;50.778;7.206;2023-06-24T12:23:57;7.30;;;4.20;;
13590;SDS011;6866;50.778;7.206;2023-06-24T12:26:24;6.47;;;4.10;;
13590;SDS011;6866;50.778;7.206;2023-06-24T12:28:49;6.10;;;3.93;;
13590;SDS011;6866;50.778;7.206;2023-06-24T12:31:15;5.85;;;4.18;;
13590;SDS011;6866;50.778;7.206;2023-06-24T12:33:41;9.55;;;4.22;;
13590;SDS011;6866;50.778;7.206;2023-06-24T12:36:06;8.10;;;4.43;;
13590;SDS011;6866;50.778;7.206;2023-06-24T12:38:32;7.38;;;4.38;;
13590;SDS011;6866;50.778;7.206;2023-06-24T12:40:57;6.80;;;4.17;;
13590;SDS011;6866;50.778;7.206;2023-06-24T12:43:23;7.77;;;4.10;;
13590;SDS011;6866;50.778;7.206;2023-06-24T12:45:49;6.80;;;4.00;;
13590;SDS011;6866;50.778;7.206;2023-06-24T12:48:16;8.50;;;4.30;;
13590;SDS011;6866;50.778;7.206;2023-06-24T12:50:41;8.40;;;4.10;;
13590;SDS011;6866;50.778;7.206;2023-06-24T12:53:07;5.60;;;3.88;;
13590;SDS011;6866;50.778;7.206;2023-06-24T12:55:35;7.35;;;4.32;;
13590;SDS011;6866;50.778;7.206;2023-06-24T12:58:01;8.90;;;4.15;;
13590;SDS011;6866;50.778;7.206;2023-06-24T13:00:26;9.23;;;4.20;;
13590;SDS011;6866;50.778;7.206;2023-06-24T13:02:52;6.87;;;3.73;;
13590;SDS011;6866;50.778;7.206;2023-06-24T13:05:18;6.80;;;4.03;;
13590;SDS011;6866;50.778;7.206;2023-06-24T13:07:43;6.60;;;4.07;;
13590;SDS011;6866;50.778;7.206;2023-06-24T13:10:09;6.07;;;3.70;;
13590;SDS011;6866;50.778;7.206;2023-06-24T13:12:35;5.00;;;3.75;;
13590;SDS011;6866;50.778;7.206;2023-06-24T13:15:05;5.68;;;3.85;;
13590;SDS011;6866;50.778;7.206;2023-06-24T13:17:31;7.97;;;4.00;;
13590;SDS011;6866;50.778;7.206;2023-06-24T13:19:57;6.57;;;3.85;;
13590;SDS011;6866;50.778;7.206;2023-06-24T13:22:23;7.40;;;3.83;;
13590;SDS011;6866;50.778;7.206;2023-06-24T13:24:49;6.20;;;4.00;;
13590;SDS011;6866;50.778;7.206;2023-06-24T13:27:14;5.55;;;3.47;;
13590;SDS011;6866;50.778;7.206;2023-06-24T13:29:41;6.13;;;3.85;;
13590;SDS011;6866;50.778;7.206;2023-06-24T13:32:07;6.20;;;3.60;;
13590;SDS011;6866;50.778;7.206;2023-06-24T13:34:33;5.20;;;3.70;;
13590;SDS011;6866;50.778;7.206;2023-06-24T13:36:59;6.33;;;3.93;;
13590;SDS011;6866;50.778;7.206;2023-06-24T13:39:24;5.67;;;3.77;;
13590;SDS011;6866;50.778;7.206;2023-06-24T13:41:50;6.43;;;3.80;;
13590;SDS011;6866;50.778;7.206;2023-06-24T13:44:17;6.88;;;3.85;;
13590;SDS011;6866;50.778;7.206;2023-06-24T13:46:43;6.20;;;3.90;;
13590;SDS011;6866;50.778;7.206;2023-06-24T13:49:08;7.40;;;4.13;;
13590;SDS011;6866;50.778;7.206;2023-06-24T13:51:34;6.22;;;4.07;;
13590;SDS011;6866;50.778;7.206;2023-06-24T13:54:00;8.32;;;4.18;;
13590;SDS011;6866;50.778;7.206;2023-06-24T13:56:26;6.45;;;3.88;;
13590;SDS011;6866;50.778;7.206;2023-06-24T13:58:52;6.72;;;3.90;;
13590;SDS011;6866;50.778;7.206;2023-06-24T14:01:19;5.50;;;3.83;;
13590;SDS011;6866;50.778;7.206;2023-06-24T14:03:45;5.03;;;3.78;;
13590;SDS011;6866;50.778;7.206;2023-06-24T14:06:13;5.90;;;3.70;;
13590;SDS011;6866;50.778;7.206;2023-06-24T14:08:51;6.40;;;3.97;;
13590;SDS011;6866;50.778;7.206;2023-06-24T14:11:17;7.88;;;3.92;;
13590;SDS011;6866;50.778;7.206;2023-06-24T14:13:43;6.43;;;4.03;;
13590;SDS011;6866;50.778;7.206;2023-06-24T14:16:09;7.13;;;4.20;;
13590;SDS011;6866;50.778;7.206;2023-06-24T14:18:35;8.32;;;4.45;;
13590;SDS011;6866;50.778;7.206;2023-06-24T14:21:02;6.75;;;4.20;;
13590;SDS011;6866;50.778;7.206;2023-06-24T14:23:29;12.52;;;4.18;;
13590;SDS011;6866;50.778;7.206;2023-06-24T14:40:29;8.85;;;4.30;;
13590;SDS011;6866;50.778;7.206;2023-06-24T14:42:54;6.05;;;4.03;;
13590;SDS011;6866;50.778;7.206;2023-06-24T14:45:20;6.13;;;4.15;;
13590;SDS011;6866;50.778;7.206;2023-06-24T14:47:45;6.40;;;3.90;;
13590;SDS011;6866;50.778;7.206;2023-06-24T14:50:12;8.95;;;3.88;;
13590;SDS011;6866;50.778;7.206;2023-06-24T14:52:37;7.38;;;4.30;;
13590;SDS011;6866;50.778;7.206;2023-06-24T14:55:03;6.30;;;4.25;;
13590;SDS011;6866;50.778;7.206;2023-06-24T14:57:28;6.22;;;4.10;;
13590;SDS011;6866;50.778;7.206;2023-06-24T14:59:54;8.07;;;4.10;;
13590;SDS011;6866;50.778;7.206;2023-06-24T15:02:19;6.28;;;4.35;;
13590;SDS011;6866;50.778;7.206;2023-06-24T15:04:45;7.70;;;4.50;;
13590;SDS011;6866;50.778;7.206;2023-06-24T15:07:11;9.50;;;4.10;;
13590;SDS011;6866;50.778;7.206;2023-06-24T15:09:36;9.70;;;4.38;;
13590;SDS011;6866;50.778;7.206;2023-06-24T15:12:02;5.45;;;4.32;;
13590;SDS011;6866;50.778;7.206;2023-06-24T15:14:28;6.90;;;4.60;;
13590;SDS011;6866;50.778;7.206;2023-06-24T15:16:53;6.90;;;4.40;;
13590;SDS011;6866;50.778;7.206;2023-06-24T15:19:22;6.47;;;4.28;;
13590;SDS011;6866;50.778;7.206;2023-06-24T15:21:48;5.75;;;3.90;;
13590;SDS011;6866;50.778;7.206;2023-06-24T15:24:13;6.10;;;4.00;;
13590;SDS011;6866;50.778;7.206;2023-06-24T15:26:39;5.93;;;4.05;;
13590;SDS011;6866;50.778;7.206;2023-06-24T15:29:04;6.17;;;4.33;;
13590;SDS011;6866;50.778;7.206;2023-06-24T15:31:30;7.03;;;3.80;;
13590;SDS011;6866;50.778;7.206;2023-06-24T15:33:56;7.13;;;4.72;;
13590;SDS011;6866;50.778;7.206;2023-06-24T15:36:21;8.95;;;4.20;;
13590;SDS011;6866;50.778;7.206;2023-06-24T15:38:47;8.02;;;4.30;;
13590;SDS011;6866;50.778;7.206;2023-06-24T15:41:13;5.20;;;3.72;;
13590;SDS011;6866;50.778;7.206;2023-06-24T15:43:39;8.10;;;3.80;;
13590;SDS011;6866;50.778;7.206;2023-06-24T15:46:05;7.82;;;4.03;;
13590;SDS011;6866;50.778;7.206;2023-06-24T15:48:31;8.27;;;4.22;;
13590;SDS011;6866;50.778;7.206;2023-06-24T15:50:56;6.65;;;4.00;;
13590;SDS011;6866;50.778;7.206;2023-06-24T15:53:24;5.70;;;3.78;;
13590;SDS011;6866;50.778;7.206;2023-06-24T15:55:50;6.53;;;3.90;;
13590;SDS011;6866;50.778;7.206;2023-06-24T15:58:15;9.13;;;4.00;;
13590;SDS011;6866;50.778;7.206;2023-06-24T16:00:41;8.27;;;4.20;;
13590;SDS011;6866;50.778;7.206;2023-06-24T16:03:07;8.68;;;4.07;;
13590;SDS011;6866;50.778;7.206;2023-06-24T16:05:33;7.65;;;4.10;;
13590;SDS011;6866;50.778;7.206;2023-06-24T16:07:58;7.22;;;3.78;;
13590;SDS011;6866;50.778;7.206;2023-06-24T16:10:24;7.95;;;4.00;;
13590;SDS011;6866;50.778;7.206;2023-06-24T16:12:49;7.38;;;3.85;;
13590;SDS011;6866;50.778;7.206;2023-06-24T16:15:15;7.25;;;3.78;;
13590;SDS011;6866;50.778;7.206;2023-06-24T16:17:40;6.07;;;3.72;;
13590;SDS011;6866;50.778;7.206;2023-06-24T16:20:06;7.20;;;3.55;;
13590;SDS011;6866;50.778;7.206;2023-06-24T16:22:32;7.63;;;4.13;;
13590;SDS011;6866;50.778;7.206;2023-06-24T16:24:57;6.47;;;3.83;;
13590;SDS011;6866;50.778;7.206;2023-06-24T16:27:23;6.50;;;3.70;;
13590;SDS011;6866;50.778;7.206;2023-06-24T16:29:48;8.70;;;3.90;;
13590;SDS011;6866;50.778;7.206;2023-06-24T16:32:14;5.78;;;3.72;;
13590;SDS011;6866;50.778;7.206;2023-06-24T16:34:39;6.38;;;4.00;;
13590;SDS011;6866;50.778;7.206;2023-06-24T16:37:05;6.75;;;3.88;;
13590;SDS011;6866;50.778;7.206;2023-06-24T16:39:30;6.68;;;4.03;;
13590;SDS011;6866;50.778;7.206;2023-06-24T16:41:56;5.00;;;3.53;;
13590;SDS011;6866;50.778;7.206;2023-06-24T16:44:22;5.53;;;3.80;;
13590;SDS011;6866;50.778;7.206;2023-06-24T16:46:47;7.10;;;3.92;;
13590;SDS011;6866;50.778;7.206;2023-06-24T16:49:13;5.65;;;3.72;;
13590;SDS011;6866;50.778;7.206;2023-06-24T16:51:38;6.78;;;3.63;;
13590;SDS011;6866;50.778;7.206;2023-06-24T16:54:05;7.47;;;4.00;;
13590;SDS011;6866;50.778;7.206;2023-06-24T16:56:31;6.80;;;4.05;;
13590;SDS011;6866;50.778;7.206;2023-06-24T16:58:57;6.70;;;3.50;;
13590;SDS011;6866;50.778;7.206;2023-06-24T17:01:22;6.63;;;3.78;;
13590;SDS011;6866;50.778;7.206;2023-06-24T17:03:48;7.50;;;3.92;;
13590;SDS011;6866;50.778;7.206;2023-06-24T17:06:13;7.97;;;4.07;;
13590;SDS011;6866;50.778;7.206;2023-06-24T17:08:39;6.85;;;3.95;;
13590;SDS011;6866;50.778;7.206;2023-06-24T17:20:46;12.02;;;3.90;;
13590;SDS011;6866;50.778;7.206;2023-06-24T17:23:12;6.28;;;3.90;;
13590;SDS011;6866;50.778;7.206;2023-06-24T17:25:37;6.07;;;3.80;;
13590;SDS011;6866;50.778;7.206;2023-06-24T17:28:03;6.72;;;4.03;;
13590;SDS011;6866;50.778;7.206;2023-06-24T17:30:29;8.85;;;3.97;;
13590;SDS011;6866;50.778;7.206;2023-06-24T17:32:54;6.50;;;3.47;;
13590;SDS011;6866;50.778;7.206;2023-06-24T17:35:20;6.30;;;3.85;;
13590;SDS011;6866;50.778;7.206;2023-06-24T17:37:47;7.68;;;3.90;;
13590;SDS011;6866;50.778;7.206;2023-06-24T17:40:12;6.95;;;3.60;;
13590;SDS011;6866;50.778;7.206;2023-06-24T17:42:38;7.65;;;3.70;;
13590;SDS011;6866;50.778;7.206;2023-06-24T17:45:04;7.55;;;3.72;;
13590;SDS011;6866;50.778;7.206;2023-06-24T17:47:30;5.93;;;3.70;;
13590;SDS011;6866;50.778;7.206;2023-06-24T17:49:55;5.10;;;3.45;;
13590;SDS011;6866;50.778;7.206;2023-06-24T17:52:21;5.32;;;3.60;;
13590;SDS011;6866;50.778;7.206;2023-06-24T17:54:46;7.43;;;3.47;;
13590;SDS011;6866;50.778;7.206;2023-06-24T17:57:12;5.60;;;3.20;;
13590;SDS011;6866;50.778;7.206;2023-06-24T17:59:37;5.65;;;3.60;;
13590;SDS011;6866;50.778;7.206;2023-06-24T18:02:03;7.45;;;3.95;;
13590;SDS011;6866;50.778;7.206;2023-06-24T18:04:29;6.50;;;3.67;;
13590;SDS011;6866;50.778;7.206;2023-06-24T18:06:54;6.25;;;3.20;;
13590;SDS011;6866;50.778;7.206;2023-06-24T18:09:20;6.63;;;3.72;;
13590;SDS011;6866;50.778;7.206;2023-06-24T18:11:45;6.18;;;3.45;;
13590;SDS011;6866;50.778;7.206;2023-06-24T18:14:14;6.00;;;3.72;;
13590;SDS011;6866;50.778;7.206;2023-06-24T18:16:40;5.07;;;3.45;;
13590;SDS011;6866;50.778;7.206;2023-06-24T18:19:06;7.30;;;3.58;;